sensor_id;sensor_type;location;lat;lon;timestamp;temperature;humidity
49777;DHT22;35673;51.482;7.436;2023-05-10T00:00:33;13.80;99.90
49777;DHT22;35673;51.482;7.436;2023-05-10T00:02:58;13.80;99.90
49777;DHT22;35673;51.482;7.436;2023-05-10T00:05:24;13.70;99.90
49777;DHT22;35673;51.482;7.436;2023-05-10T00:07:49;13.70;99.90
49777;DHT22;35673;51.482;7.436;2023-05-10T00:10:15;13.70;99.90
49777;DHT22;35673;51.482;7.436;2023-05-10T00:12:41;13.60;99.90
49777;DHT22;35673;51.482;7.436;2023-05-10T00:15:07;13.70;99.90
49777;DHT22;35673;51.482;7.436;2023-05-10T00:17:33;13.60;99.90
49777;DHT22;35673;51.482;7.436;2023-05-10T00:19:58;13.70;99.90
49777;DHT22;35673;51.482;7.436;2023-05-10T00:22:24;13.60;99.90
49777;DHT22;35673;51.482;7.436;2023-05-10T00:24:49;13.60;99.90
49777;DHT22;35673;51.482;7.436;2023-05-10T00:27:15;13.60;99.90
49777;DHT22;35673;51.482;7.436;2023-05-10T00:29:40;13.60;99.90
49777;DHT22;35673;51.482;7.436;2023-05-10T00:32:06;13.60;99.90
49777;DHT22;35673;51.482;7.436;2023-05-10T00:34:31;13.60;99.90
49777;DHT22;35673;51.482;7.436;2023-05-10T00:36:57;13.70;99.90
49777;DHT22;35673;51.482;7.436;2023-05-10T00:39:22;13.60;99.90
49777;DHT22;35673;51.482;7.436;2023-05-10T00:41:48;13.70;99.90
49777;DHT22;35673;51.482;7.436;2023-05-10T00:44:13;13.60;99.90
49777;DHT22;35673;51.482;7.436;2023-05-10T00:46:39;13.60;99.90
49777;DHT22;35673;51.482;7.436;2023-05-10T00:49:05;13.60;99.90
49777;DHT22;35673;51.482;7.436;2023-05-10T00:51:31;13.60;99.90
49777;DHT22;35673;51.482;7.436;2023-05-10T00:53:57;13.70;99.90
49777;DHT22;35673;51.482;7.436;2023-05-10T00:56:22;13.70;99.90
49777;DHT22;35673;51.482;7.436;2023-05-10T00:58:49;13.70;99.90
49777;DHT22;35673;51.482;7.436;2023-05-10T01:01:15;13.70;99.90
49777;DHT22;35673;51.482;7.436;2023-05-10T01:03:40;13.70;99.90
49777;DHT22;35673;51.482;7.436;2023-05-10T01:06:07;13.70;99.90
49777;DHT22;35673;51.482;7.436;2023-05-10T01:08:32;13.70;99.90
49777;DHT22;35673;51.482;7.436;2023-05-10T01:10:58;13.70;99.90
49777;DHT22;35673;51.482;7.436;2023-05-10T01:13:33;13.70;99.90
49777;DHT22;35673;51.482;7.436;2023-05-10T01:16:00;13.70;99.90
49777;DHT22;35673;51.482;7.436;2023-05-10T01:18:27;13.70;99.90
49777;DHT22;35673;51.482;7.436;2023-05-10T01:20:57;13.70;99.90
49777;DHT22;35673;51.482;7.436;2023-05-10T01:23:30;13.70;99.90
49777;DHT22;35673;51.482;7.436;2023-05-10T01:26:13;13.70;99.90
49777;DHT22;35673;51.482;7.436;2023-05-10T01:31:18;13.70;99.90
49777;DHT22;35673;51.482;7.436;2023-05-10T01:34:07;13.70;99.90
49777;DHT22;35673;51.482;7.436;2023-05-10T01:37:08;13.70;99.90
49777;DHT22;35673;51.482;7.436;2023-05-10T01:39:29;13.70;99.90
49777;DHT22;35673;51.482;7.436;2023-05-10T01:46:54;13.70;99.90
49777;DHT22;35673;51.482;7.436;2023-05-10T01:49:26;13.70;99.90
49777;DHT22;35673;51.482;7.436;2023-05-10T01:51:53;13.70;99.90
49777;DHT22;35673;51.482;7.436;2023-05-10T01:54:22;13.70;99.90
49777;DHT22;35673;51.482;7.436;2023-05-10T01:56:50;13.80;99.90
49777;DHT22;35673;51.482;7.436;2023-05-10T01:59:18;13.80;99.90
49777;DHT22;35673;51.482;7.436;2023-05-10T02:01:44;13.80;99.90
49777;DHT22;35673;51.482;7.436;2023-05-10T02:04:10;13.80;99.90
49777;DHT22;35673;51.482;7.436;2023-05-10T02:06:37;13.80;99.90
49777;DHT22;35673;51.482;7.436;2023-05-10T02:09:03;13.80;99.90
49777;DHT22;35673;51.482;7.436;2023-05-10T02:11:29;13.80;99.90
49777;DHT22;35673;51.482;7.436;2023-05-10T02:13:56;13.80;99.90
49777;DHT22;35673;51.482;7.436;2023-05-10T02:16:23;13.80;99.90
49777;DHT22;35673;51.482;7.436;2023-05-10T02:18:50;13.70;99.90
49777;DHT22;35673;51.482;7.436;2023-05-10T02:21:16;13.70;99.90
49777;DHT22;35673;51.482;7.436;2023-05-10T02:23:42;13.60;99.90
49777;DHT22;35673;51.482;7.436;2023-05-10T02:26:08;13.60;99.90
49777;DHT22;35673;51.482;7.436;2023-05-10T02:28:34;13.60;99.90
49777;DHT22;35673;51.482;7.436;2023-05-10T02:31:00;13.60;99.90
49777;DHT22;35673;51.482;7.436;2023-05-10T02:33:26;13.60;99.90
49777;DHT22;35673;51.482;7.436;2023-05-10T02:35:52;13.50;99.90
49777;DHT22;35673;51.482;7.436;2023-05-10T02:38:19;13.50;99.90
49777;DHT22;35673;51.482;7.436;2023-05-10T02:40:45;13.50;99.90
49777;DHT22;35673;51.482;7.436;2023-05-10T02:43:12;13.50;99.90
49777;DHT22;35673;51.482;7.436;2023-05-10T02:45:38;13.40;99.90
49777;DHT22;35673;51.482;7.436;2023-05-10T02:48:05;13.50;99.90
49777;DHT22;35673;51.482;7.436;2023-05-10T02:50:30;13.50;99.90
49777;DHT22;35673;51.482;7.436;2023-05-10T02:53:01;13.50;99.90
49777;DHT22;35673;51.482;7.436;2023-05-10T02:55:31;13.50;99.90
49777;DHT22;35673;51.482;7.436;2023-05-10T02:58:00;13.50;99.90
49777;DHT22;35673;51.482;7.436;2023-05-10T03:00:26;13.50;99.90
49777;DHT22;35673;51.482;7.436;2023-05-10T03:02:52;13.50;99.90
49777;DHT22;35673;51.482;7.436;2023-05-10T03:05:18;13.50;99.90
49777;DHT22;35673;51.482;7.436;2023-05-10T03:07:44;13.50;99.90
49777;DHT22;35673;51.482;7.436;2023-05-10T03:10:09;13.50;99.90
49777;DHT22;35673;51.482;7.436;2023-05-10T03:18:07;13.50;99.90
49777;DHT22;35673;51.482;7.436;2023-05-10T03:20:38;13.50;99.90
49777;DHT22;35673;51.482;7.436;2023-05-10T03:25:35;13.50;99.90
49777;DHT22;35673;51.482;7.436;2023-05-10T03:28:01;13.50;99.90
49777;DHT22;35673;51.482;7.436;2023-05-10T03:30:27;13.60;99.90
49777;DHT22;35673;51.482;7.436;2023-05-10T03:32:53;13.60;99.90
49777;DHT22;35673;51.482;7.436;2023-05-10T03:35:19;13.50;99.90
49777;DHT22;35673;51.482;7.436;2023-05-10T03:37:45;13.50;99.90
49777;DHT22;35673;51.482;7.436;2023-05-10T03:40:10;13.40;99.90
49777;DHT22;35673;51.482;7.436;2023-05-10T03:42:36;13.40;99.90
49777;DHT22;35673;51.482;7.436;2023-05-10T03:45:01;13.40;99.90
49777;DHT22;35673;51.482;7.436;2023-05-10T03:47:27;13.30;99.90
49777;DHT22;35673;51.482;7.436;2023-05-10T03:49:53;13.40;99.90
49777;DHT22;35673;51.482;7.436;2023-05-10T03:52:18;13.40;99.90
49777;DHT22;35673;51.482;7.436;2023-05-10T03:54:44;13.40;99.90
49777;DHT22;35673;51.482;7.436;2023-05-10T03:57:09;13.30;99.90
49777;DHT22;35673;51.482;7.436;2023-05-10T03:59:35;13.30;99.90
49777;DHT22;35673;51.482;7.436;2023-05-10T04:02:00;13.30;99.90
49777;DHT22;35673;51.482;7.436;2023-05-10T04:04:26;13.30;99.90
49777;DHT22;35673;51.482;7.436;2023-05-10T04:06:51;13.20;99.90
49777;DHT22;35673;51.482;7.436;2023-05-10T04:09:17;13.20;99.90
49777;DHT22;35673;51.482;7.436;2023-05-10T04:11:43;13.20;99.90
49777;DHT22;35673;51.482;7.436;2023-05-10T04:14:08;13.20;99.90
49777;DHT22;35673;51.482;7.436;2023-05-10T04:16:34;13.20;99.90
49777;DHT22;35673;51.482;7.436;2023-05-10T04:18:59;13.20;99.90
49777;DHT22;35673;51.482;7.436;2023-05-10T04:21:25;13.20;99.90
49777;DHT22;35673;51.482;7.436;2023-05-10T04:23:50;13.20;99.90
49777;DHT22;35673;51.482;7.436;2023-05-10T04:26:16;13.20;99.90
49777;DHT22;35673;51.482;7.436;2023-05-10T04:28:41;13.20;99.90
49777;DHT22;35673;51.482;7.436;2023-05-10T04:31:08;13.20;99.90
49777;DHT22;35673;51.482;7.436;2023-05-10T04:33:34;13.20;99.90
49777;DHT22;35673;51.482;7.436;2023-05-10T04:36:00;13.20;99.90
49777;DHT22;35673;51.482;7.436;2023-05-10T04:38:26;13.20;99.90
49777;DHT22;35673;51.482;7.436;2023-05-10T04:40:52;13.30;99.90
49777;DHT22;35673;51.482;7.436;2023-05-10T04:43:18;13.40;99.90
49777;DHT22;35673;51.482;7.436;2023-05-10T04:45:43;13.30;99.90
49777;DHT22;35673;51.482;7.436;2023-05-10T04:48:09;13.30;99.90
49777;DHT22;35673;51.482;7.436;2023-05-10T04:50:34;13.20;99.90
49777;DHT22;35673;51.482;7.436;2023-05-10T04:53:00;13.20;99.90
49777;DHT22;35673;51.482;7.436;2023-05-10T04:55:25;13.20;99.90
49777;DHT22;35673;51.482;7.436;2023-05-10T04:57:52;13.20;99.90
49777;DHT22;35673;51.482;7.436;2023-05-10T05:00:18;13.10;99.90
49777;DHT22;35673;51.482;7.436;2023-05-10T05:02:44;13.20;99.90
49777;DHT22;35673;51.482;7.436;2023-05-10T05:05:10;13.20;99.90
49777;DHT22;35673;51.482;7.436;2023-05-10T05:07:36;13.30;99.90
49777;DHT22;35673;51.482;7.436;2023-05-10T05:10:02;13.30;99.90
49777;DHT22;35673;51.482;7.436;2023-05-10T05:12:28;13.30;99.90
49777;DHT22;35673;51.482;7.436;2023-05-10T05:14:53;13.20;99.90
49777;DHT22;35673;51.482;7.436;2023-05-10T05:17:19;13.30;99.90
49777;DHT22;35673;51.482;7.436;2023-05-10T05:19:44;13.30;99.90
49777;DHT22;35673;51.482;7.436;2023-05-10T05:22:10;13.30;99.90
49777;DHT22;35673;51.482;7.436;2023-05-10T05:24:36;13.40;99.90
49777;DHT22;35673;51.482;7.436;2023-05-10T05:27:05;13.40;99.90
49777;DHT22;35673;51.482;7.436;2023-05-10T05:29:31;13.40;99.90
49777;DHT22;35673;51.482;7.436;2023-05-10T05:31:56;13.40;99.90
49777;DHT22;35673;51.482;7.436;2023-05-10T05:34:22;13.40;99.90
49777;DHT22;35673;51.482;7.436;2023-05-10T05:36:48;13.40;99.90
49777;DHT22;35673;51.482;7.436;2023-05-10T05:39:13;13.40;99.90
49777;DHT22;35673;51.482;7.436;2023-05-10T05:41:39;13.40;99.90
49777;DHT22;35673;51.482;7.436;2023-05-10T05:44:04;13.40;99.90
49777;DHT22;35673;51.482;7.436;2023-05-10T05:46:30;13.50;99.90
49777;DHT22;35673;51.482;7.436;2023-05-10T05:48:55;13.50;99.90
49777;DHT22;35673;51.482;7.436;2023-05-10T05:51:21;13.50;99.90
49777;DHT22;35673;51.482;7.436;2023-05-10T05:53:46;13.50;99.90
49777;DHT22;35673;51.482;7.436;2023-05-10T05:56:12;13.50;99.90
49777;DHT22;35673;51.482;7.436;2023-05-10T05:58:37;13.60;99.90
49777;DHT22;35673;51.482;7.436;2023-05-10T06:01:03;13.60;99.90
49777;DHT22;35673;51.482;7.436;2023-05-10T06:03:28;13.60;99.90
49777;DHT22;35673;51.482;7.436;2023-05-10T06:05:54;13.60;99.90
49777;DHT22;35673;51.482;7.436;2023-05-10T06:08:19;13.70;99.90
49777;DHT22;35673;51.482;7.436;2023-05-10T06:10:45;13.70;99.90
49777;DHT22;35673;51.482;7.436;2023-05-10T06:13:11;13.70;99.90
49777;DHT22;35673;51.482;7.436;2023-05-10T06:15:37;13.70;99.90
49777;DHT22;35673;51.482;7.436;2023-05-10T06:18:02;13.80;99.90
49777;DHT22;35673;51.482;7.436;2023-05-10T06:20:28;13.90;99.90
49777;DHT22;35673;51.482;7.436;2023-05-10T06:22:53;14.00;99.90
49777;DHT22;35673;51.482;7.436;2023-05-10T06:25:19;14.10;99.90
49777;DHT22;35673;51.482;7.436;2023-05-10T06:27:45;14.20;99.90
49777;DHT22;35673;51.482;7.436;2023-05-10T06:30:11;14.20;99.90
49777;DHT22;35673;51.482;7.436;2023-05-10T06:32:38;14.30;99.90
49777;DHT22;35673;51.482;7.436;2023-05-10T06:35:04;14.30;99.90
49777;DHT22;35673;51.482;7.436;2023-05-10T06:37:29;14.30;99.90
49777;DHT22;35673;51.482;7.436;2023-05-10T06:39:55;14.20;99.90
49777;DHT22;35673;51.482;7.436;2023-05-10T06:42:21;14.10;99.90
49777;DHT22;35673;51.482;7.436;2023-05-10T06:44:46;14.20;99.90
49777;DHT22;35673;51.482;7.436;2023-05-10T06:47:12;14.20;99.90
49777;DHT22;35673;51.482;7.436;2023-05-10T06:49:37;14.10;99.90
49777;DHT22;35673;51.482;7.436;2023-05-10T06:52:03;14.10;99.90
49777;DHT22;35673;51.482;7.436;2023-05-10T06:54:28;14.20;99.90
49777;DHT22;35673;51.482;7.436;2023-05-10T06:56:54;14.20;99.90
49777;DHT22;35673;51.482;7.436;2023-05-10T06:59:19;14.20;99.90
49777;DHT22;35673;51.482;7.436;2023-05-10T07:01:46;14.30;99.90
49777;DHT22;35673;51.482;7.436;2023-05-10T07:04:12;14.20;99.90
49777;DHT22;35673;51.482;7.436;2023-05-10T07:06:38;14.30;99.90
49777;DHT22;35673;51.482;7.436;2023-05-10T07:09:03;14.40;99.90
49777;DHT22;35673;51.482;7.436;2023-05-10T07:11:29;14.50;99.90
49777;DHT22;35673;51.482;7.436;2023-05-10T07:13:54;14.60;99.90
49777;DHT22;35673;51.482;7.436;2023-05-10T07:16:20;14.70;99.90
49777;DHT22;35673;51.482;7.436;2023-05-10T07:18:46;14.80;99.90
49777;DHT22;35673;51.482;7.436;2023-05-10T07:21:12;14.80;99.90
49777;DHT22;35673;51.482;7.436;2023-05-10T07:23:37;15.00;99.90
49777;DHT22;35673;51.482;7.436;2023-05-10T07:26:03;15.20;99.90
49777;DHT22;35673;51.482;7.436;2023-05-10T07:28:28;15.30;99.90
49777;DHT22;35673;51.482;7.436;2023-05-10T07:30:54;15.40;99.90
49777;DHT22;35673;51.482;7.436;2023-05-10T07:33:19;15.50;99.90
49777;DHT22;35673;51.482;7.436;2023-05-10T07:35:45;15.40;99.90
49777;DHT22;35673;51.482;7.436;2023-05-10T07:38:10;15.40;99.90
49777;DHT22;35673;51.482;7.436;2023-05-10T07:40:36;15.40;99.90
49777;DHT22;35673;51.482;7.436;2023-05-10T07:43:02;15.50;99.90
49777;DHT22;35673;51.482;7.436;2023-05-10T07:45:27;15.60;99.90
49777;DHT22;35673;51.482;7.436;2023-05-10T07:47:53;15.80;99.90
49777;DHT22;35673;51.482;7.436;2023-05-10T07:50:18;15.90;99.90
49777;DHT22;35673;51.482;7.436;2023-05-10T07:52:44;15.90;99.90
49777;DHT22;35673;51.482;7.436;2023-05-10T07:55:10;15.70;99.90
49777;DHT22;35673;51.482;7.436;2023-05-10T07:57:35;15.60;99.90
49777;DHT22;35673;51.482;7.436;2023-05-10T08:00:01;15.50;99.90
49777;DHT22;35673;51.482;7.436;2023-05-10T08:02:27;15.40;99.90
49777;DHT22;35673;51.482;7.436;2023-05-10T08:04:52;15.30;99.90
49777;DHT22;35673;51.482;7.436;2023-05-10T08:07:18;15.30;99.90
49777;DHT22;35673;51.482;7.436;2023-05-10T08:09:44;15.40;99.90
49777;DHT22;35673;51.482;7.436;2023-05-10T08:12:09;15.40;99.90
49777;DHT22;35673;51.482;7.436;2023-05-10T08:14:35;15.60;99.90
49777;DHT22;35673;51.482;7.436;2023-05-10T08:17:02;15.70;99.90
49777;DHT22;35673;51.482;7.436;2023-05-10T08:19:28;15.80;99.90
49777;DHT22;35673;51.482;7.436;2023-05-10T08:21:53;15.80;99.90
49777;DHT22;35673;51.482;7.436;2023-05-10T08:24:21;15.80;99.90
49777;DHT22;35673;51.482;7.436;2023-05-10T08:26:46;15.80;99.90
49777;DHT22;35673;51.482;7.436;2023-05-10T08:29:13;15.80;99.90
49777;DHT22;35673;51.482;7.436;2023-05-10T08:31:38;15.70;99.90
49777;DHT22;35673;51.482;7.436;2023-05-10T08:34:04;15.70;99.90
49777;DHT22;35673;51.482;7.436;2023-05-10T08:36:29;15.60;99.90
49777;DHT22;35673;51.482;7.436;2023-05-10T08:38:55;15.60;99.90
49777;DHT22;35673;51.482;7.436;2023-05-10T08:41:20;15.60;99.90
49777;DHT22;35673;51.482;7.436;2023-05-10T08:43:46;15.70;99.90
49777;DHT22;35673;51.482;7.436;2023-05-10T08:46:16;15.90;99.90
49777;DHT22;35673;51.482;7.436;2023-05-10T08:48:44;16.00;99.90
49777;DHT22;35673;51.482;7.436;2023-05-10T08:51:10;16.00;99.90
49777;DHT22;35673;51.482;7.436;2023-05-10T08:53:37;15.90;99.90
49777;DHT22;35673;51.482;7.436;2023-05-10T08:56:03;15.90;99.90
49777;DHT22;35673;51.482;7.436;2023-05-10T08:58:28;16.00;99.90
49777;DHT22;35673;51.482;7.436;2023-05-10T09:00:54;15.80;99.90
49777;DHT22;35673;51.482;7.436;2023-05-10T09:03:21;15.60;99.90
49777;DHT22;35673;51.482;7.436;2023-05-10T09:05:46;15.60;99.90
49777;DHT22;35673;51.482;7.436;2023-05-10T09:08:13;15.80;99.90
49777;DHT22;35673;51.482;7.436;2023-05-10T09:10:39;15.80;99.90
49777;DHT22;35673;51.482;7.436;2023-05-10T09:13:05;15.80;99.90
49777;DHT22;35673;51.482;7.436;2023-05-10T09:15:32;15.80;99.90
49777;DHT22;35673;51.482;7.436;2023-05-10T09:17:57;15.80;99.90
49777;DHT22;35673;51.482;7.436;2023-05-10T09:20:24;15.90;99.90
49777;DHT22;35673;51.482;7.436;2023-05-10T09:22:50;16.00;99.90
49777;DHT22;35673;51.482;7.436;2023-05-10T09:25:16;16.10;99.90
49777;DHT22;35673;51.482;7.436;2023-05-10T09:27:45;16.30;99.90
49777;DHT22;35673;51.482;7.436;2023-05-10T09:30:15;16.40;99.90
49777;DHT22;35673;51.482;7.436;2023-05-10T09:32:45;16.50;99.90
49777;DHT22;35673;51.482;7.436;2023-05-10T09:37:40;16.60;99.90
49777;DHT22;35673;51.482;7.436;2023-05-10T09:40:13;16.60;99.90
49777;DHT22;35673;51.482;7.436;2023-05-10T09:42:42;16.70;99.90
49777;DHT22;35673;51.482;7.436;2023-05-10T09:45:08;16.70;99.90
49777;DHT22;35673;51.482;7.436;2023-05-10T09:47:34;16.90;99.90
49777;DHT22;35673;51.482;7.436;2023-05-10T09:50:02;16.90;99.90
49777;DHT22;35673;51.482;7.436;2023-05-10T09:52:29;16.80;99.90
49777;DHT22;35673;51.482;7.436;2023-05-10T09:54:55;16.80;99.90
49777;DHT22;35673;51.482;7.436;2023-05-10T09:57:21;16.80;99.90
49777;DHT22;35673;51.482;7.436;2023-05-10T09:59:47;16.80;99.90
49777;DHT22;35673;51.482;7.436;2023-05-10T10:02:13;16.90;99.90
49777;DHT22;35673;51.482;7.436;2023-05-10T10:04:41;16.70;99.90
49777;DHT22;35673;51.482;7.436;2023-05-10T10:07:07;16.80;99.90
49777;DHT22;35673;51.482;7.436;2023-05-10T10:09:33;16.70;99.90
49777;DHT22;35673;51.482;7.436;2023-05-10T10:11:59;16.70;99.90
49777;DHT22;35673;51.482;7.436;2023-05-10T10:14:25;16.90;99.90
49777;DHT22;35673;51.482;7.436;2023-05-10T10:16:51;17.00;99.90
49777;DHT22;35673;51.482;7.436;2023-05-10T10:19:17;17.20;99.90
49777;DHT22;35673;51.482;7.436;2023-05-10T10:21:43;17.30;99.90
49777;DHT22;35673;51.482;7.436;2023-05-10T10:24:08;17.40;99.90
49777;DHT22;35673;51.482;7.436;2023-05-10T10:26:34;17.50;99.90
49777;DHT22;35673;51.482;7.436;2023-05-10T10:34:17;17.00;99.90
49777;DHT22;35673;51.482;7.436;2023-05-10T10:36:47;17.10;99.90
49777;DHT22;35673;51.482;7.436;2023-05-10T10:39:13;17.30;99.90
49777;DHT22;35673;51.482;7.436;2023-05-10T10:41:40;17.30;99.90
49777;DHT22;35673;51.482;7.436;2023-05-10T10:49:49;17.30;99.90
49777;DHT22;35673;51.482;7.436;2023-05-10T10:57:42;17.90;99.90
49777;DHT22;35673;51.482;7.436;2023-05-10T11:08:01;17.40;99.90
49777;DHT22;35673;51.482;7.436;2023-05-10T11:10:31;17.50;99.90
49777;DHT22;35673;51.482;7.436;2023-05-10T11:13:00;17.40;98.40
49777;DHT22;35673;51.482;7.436;2023-05-10T11:15:37;17.40;98.90
49777;DHT22;35673;51.482;7.436;2023-05-10T11:18:19;17.70;96.30
49777;DHT22;35673;51.482;7.436;2023-05-10T11:20:49;17.80;95.30
49777;DHT22;35673;51.482;7.436;2023-05-10T11:23:15;18.00;96.10
49777;DHT22;35673;51.482;7.436;2023-05-10T11:25:43;18.20;94.40
49777;DHT22;35673;51.482;7.436;2023-05-10T11:28:11;18.20;92.50
49777;DHT22;35673;51.482;7.436;2023-05-10T11:30:38;18.10;95.80
49777;DHT22;35673;51.482;7.436;2023-05-10T11:33:03;18.00;94.50
49777;DHT22;35673;51.482;7.436;2023-05-10T11:35:30;18.00;96.10
49777;DHT22;35673;51.482;7.436;2023-05-10T11:37:55;18.00;94.10
49777;DHT22;35673;51.482;7.436;2023-05-10T11:40:21;17.90;94.20
49777;DHT22;35673;51.482;7.436;2023-05-10T11:42:50;17.80;94.70
49777;DHT22;35673;51.482;7.436;2023-05-10T11:45:15;17.90;94.20
49777;DHT22;35673;51.482;7.436;2023-05-10T11:47:41;17.90;93.40
49777;DHT22;35673;51.482;7.436;2023-05-10T11:50:08;17.80;93.80
49777;DHT22;35673;51.482;7.436;2023-05-10T11:52:37;17.80;94.20
49777;DHT22;35673;51.482;7.436;2023-05-10T11:55:03;17.90;94.70
49777;DHT22;35673;51.482;7.436;2023-05-10T11:57:28;17.80;94.00
49777;DHT22;35673;51.482;7.436;2023-05-10T11:59:57;17.70;94.40
49777;DHT22;35673;51.482;7.436;2023-05-10T12:02:23;17.60;95.00
49777;DHT22;35673;51.482;7.436;2023-05-10T12:04:49;17.70;95.10
49777;DHT22;35673;51.482;7.436;2023-05-10T12:07:15;17.70;95.20
49777;DHT22;35673;51.482;7.436;2023-05-10T12:09:44;17.80;94.10
49777;DHT22;35673;51.482;7.436;2023-05-10T12:12:16;18.00;93.90
49777;DHT22;35673;51.482;7.436;2023-05-10T12:14:42;18.20;92.90
49777;DHT22;35673;51.482;7.436;2023-05-10T12:17:11;18.30;92.40
49777;DHT22;35673;51.482;7.436;2023-05-10T12:19:37;18.40;91.70
49777;DHT22;35673;51.482;7.436;2023-05-10T12:22:04;18.60;91.10
49777;DHT22;35673;51.482;7.436;2023-05-10T12:24:30;18.60;91.30
49777;DHT22;35673;51.482;7.436;2023-05-10T12:26:55;18.70;90.80
49777;DHT22;35673;51.482;7.436;2023-05-10T12:29:21;18.80;90.50
49777;DHT22;35673;51.482;7.436;2023-05-10T12:31:54;18.60;90.80
49777;DHT22;35673;51.482;7.436;2023-05-10T12:34:33;18.20;91.00
49777;DHT22;35673;51.482;7.436;2023-05-10T12:36:59;17.80;91.80
49777;DHT22;35673;51.482;7.436;2023-05-10T12:39:25;17.60;92.80
49777;DHT22;35673;51.482;7.436;2023-05-10T12:41:51;17.50;93.60
49777;DHT22;35673;51.482;7.436;2023-05-10T12:44:17;17.40;93.90
49777;DHT22;35673;51.482;7.436;2023-05-10T12:46:43;17.30;93.60
49777;DHT22;35673;51.482;7.436;2023-05-10T12:49:08;17.40;93.40
49777;DHT22;35673;51.482;7.436;2023-05-10T12:51:34;17.70;92.90
49777;DHT22;35673;51.482;7.436;2023-05-10T12:53:59;17.90;92.80
49777;DHT22;35673;51.482;7.436;2023-05-10T12:56:25;17.90;93.30
49777;DHT22;35673;51.482;7.436;2023-05-10T12:58:51;18.30;92.70
49777;DHT22;35673;51.482;7.436;2023-05-10T13:01:16;19.40;90.90
49777;DHT22;35673;51.482;7.436;2023-05-10T13:03:42;19.20;89.30
49777;DHT22;35673;51.482;7.436;2023-05-10T13:06:08;19.10;88.00
49777;DHT22;35673;51.482;7.436;2023-05-10T13:08:34;19.20;86.60
49777;DHT22;35673;51.482;7.436;2023-05-10T13:11:00;19.30;87.10
49777;DHT22;35673;51.482;7.436;2023-05-10T13:13:25;20.10;85.30
49777;DHT22;35673;51.482;7.436;2023-05-10T13:15:51;20.10;83.30
49777;DHT22;35673;51.482;7.436;2023-05-10T13:18:17;20.60;83.70
49777;DHT22;35673;51.482;7.436;2023-05-10T13:20:42;21.70;81.50
49777;DHT22;35673;51.482;7.436;2023-05-10T13:23:09;22.70;79.90
49777;DHT22;35673;51.482;7.436;2023-05-10T13:25:35;22.10;76.50
49777;DHT22;35673;51.482;7.436;2023-05-10T13:28:01;21.30;78.80
49777;DHT22;35673;51.482;7.436;2023-05-10T13:30:26;21.50;80.80
49777;DHT22;35673;51.482;7.436;2023-05-10T13:32:52;21.50;78.30
49777;DHT22;35673;51.482;7.436;2023-05-10T13:35:17;21.60;78.50
49777;DHT22;35673;51.482;7.436;2023-05-10T13:37:43;21.20;80.70
49777;DHT22;35673;51.482;7.436;2023-05-10T13:40:09;21.20;79.40
49777;DHT22;35673;51.482;7.436;2023-05-10T13:42:34;21.40;81.00
49777;DHT22;35673;51.482;7.436;2023-05-10T13:45:00;21.30;79.70
49777;DHT22;35673;51.482;7.436;2023-05-10T13:47:27;20.90;79.50
49777;DHT22;35673;51.482;7.436;2023-05-10T13:49:52;21.00;81.10
49777;DHT22;35673;51.482;7.436;2023-05-10T13:52:18;20.30;81.30
49777;DHT22;35673;51.482;7.436;2023-05-10T13:54:44;20.80;82.00
49777;DHT22;35673;51.482;7.436;2023-05-10T13:57:09;20.80;79.10
49777;DHT22;35673;51.482;7.436;2023-05-10T13:59:37;21.20;79.90
49777;DHT22;35673;51.482;7.436;2023-05-10T14:02:02;21.40;78.00
49777;DHT22;35673;51.482;7.436;2023-05-10T14:04:28;21.80;77.30
49777;DHT22;35673;51.482;7.436;2023-05-10T14:06:54;22.40;76.50
49777;DHT22;35673;51.482;7.436;2023-05-10T14:09:19;22.70;75.90
49777;DHT22;35673;51.482;7.436;2023-05-10T14:11:45;24.00;72.00
49777;DHT22;35673;51.482;7.436;2023-05-10T14:14:11;26.30;68.70
49777;DHT22;35673;51.482;7.436;2023-05-10T14:16:38;27.50;66.30
49777;DHT22;35673;51.482;7.436;2023-05-10T14:19:03;28.90;63.30
49777;DHT22;35673;51.482;7.436;2023-05-10T14:21:29;29.10;62.70
49777;DHT22;35673;51.482;7.436;2023-05-10T14:23:57;29.40;59.00
49777;DHT22;35673;51.482;7.436;2023-05-10T14:26:22;29.50;62.20
49777;DHT22;35673;51.482;7.436;2023-05-10T14:28:48;30.70;59.90
49777;DHT22;35673;51.482;7.436;2023-05-10T14:31:13;32.30;56.90
49777;DHT22;35673;51.482;7.436;2023-05-10T14:33:39;32.20;55.80
49777;DHT22;35673;51.482;7.436;2023-05-10T14:36:06;32.20;61.50
49777;DHT22;35673;51.482;7.436;2023-05-10T14:38:31;32.00;60.10
49777;DHT22;35673;51.482;7.436;2023-05-10T14:40:57;31.50;61.40
49777;DHT22;35673;51.482;7.436;2023-05-10T14:43:23;28.80;59.50
49777;DHT22;35673;51.482;7.436;2023-05-10T14:45:48;28.90;63.60
49777;DHT22;35673;51.482;7.436;2023-05-10T14:48:14;30.40;66.20
49777;DHT22;35673;51.482;7.436;2023-05-10T14:50:42;31.40;59.30
49777;DHT22;35673;51.482;7.436;2023-05-10T14:53:08;32.40;57.30
49777;DHT22;35673;51.482;7.436;2023-05-10T14:55:34;32.80;55.00
49777;DHT22;35673;51.482;7.436;2023-05-10T14:58:01;34.00;53.50
49777;DHT22;35673;51.482;7.436;2023-05-10T15:00:27;33.30;58.60
49777;DHT22;35673;51.482;7.436;2023-05-10T15:02:53;33.20;56.70
49777;DHT22;35673;51.482;7.436;2023-05-10T15:05:18;33.10;56.60
49777;DHT22;35673;51.482;7.436;2023-05-10T15:07:44;34.80;49.90
49777;DHT22;35673;51.482;7.436;2023-05-10T15:10:09;35.70;54.60
49777;DHT22;35673;51.482;7.436;2023-05-10T15:12:36;35.40;51.00
49777;DHT22;35673;51.482;7.436;2023-05-10T15:15:01;36.20;49.00
49777;DHT22;35673;51.482;7.436;2023-05-10T15:17:27;36.70;48.50
49777;DHT22;35673;51.482;7.436;2023-05-10T15:19:53;36.60;48.90
49777;DHT22;35673;51.482;7.436;2023-05-10T15:22:18;35.50;50.00
49777;DHT22;35673;51.482;7.436;2023-05-10T15:24:44;35.10;50.30
49777;DHT22;35673;51.482;7.436;2023-05-10T15:27:09;36.10;50.60
49777;DHT22;35673;51.482;7.436;2023-05-10T15:29:35;36.10;56.20
49777;DHT22;35673;51.482;7.436;2023-05-10T15:32:01;35.80;51.70
49777;DHT22;35673;51.482;7.436;2023-05-10T15:34:26;35.70;50.60
49777;DHT22;35673;51.482;7.436;2023-05-10T15:36:52;36.00;50.30
49777;DHT22;35673;51.482;7.436;2023-05-10T15:39:18;36.90;49.10
49777;DHT22;35673;51.482;7.436;2023-05-10T15:41:43;34.40;50.60
49777;DHT22;35673;51.482;7.436;2023-05-10T15:44:09;34.20;53.70
49777;DHT22;35673;51.482;7.436;2023-05-10T15:46:34;34.10;52.70
49777;DHT22;35673;51.482;7.436;2023-05-10T15:49:00;34.10;50.80
49777;DHT22;35673;51.482;7.436;2023-05-10T15:51:25;33.90;54.10
49777;DHT22;35673;51.482;7.436;2023-05-10T15:53:51;32.30;57.60
49777;DHT22;35673;51.482;7.436;2023-05-10T15:56:16;30.10;56.00
49777;DHT22;35673;51.482;7.436;2023-05-10T15:58:42;29.50;59.30
49777;DHT22;35673;51.482;7.436;2023-05-10T16:01:09;29.70;53.50
49777;DHT22;35673;51.482;7.436;2023-05-10T16:03:34;29.80;54.60
49777;DHT22;35673;51.482;7.436;2023-05-10T16:06:00;28.70;54.60